Time;durP1;ratioP1;P1;durP2;ratioP2;P2;SDS_P1;SDS_P2;PMS_P1;PMS_P2;Temp;Humidity;BMP_temperature;BMP_pressure;BME280_temperature;BME280_humidity;BME280_pressure;Samples;Min_cycle;Max_cycle;Signal;HPM_P1;HPM_P2
2022/09/10 00:00:32;;;;;;;14.60;6.25;;;;;;;14.70;100.00;100963.63;5274499;28;20385;-72
2022/09/10 00:03:04;;;;;;;18.63;6.57;;;;;;;14.70;100.00;100955.53;5265643;28;20031;-72
2022/09/10 00:05:53;;;;;;;18.45;6.75;;;;;;;14.71;100.00;100961.78;5278747;28;20031;-72
2022/09/10 00:08:23;;;;;;;13.65;6.65;;;;;;;14.73;100.00;100952.44;5277559;28;20388;-72
2022/09/10 00:10:54;;;;;;;15.55;5.88;;;;;;;14.75;100.00;100953.09;5272322;28;20020;-72
2022/09/10 00:13:24;;;;;;;14.02;6.65;;;;;;;14.75;100.00;100953.09;5276904;28;20077;-73
2022/09/10 00:15:55;;;;;;;20.17;6.38;;;;;;;14.78;100.00;100951.88;5278391;28;20024;-73
2022/09/10 00:18:26;;;;;;;22.33;6.53;;;;;;;14.80;100.00;100951.69;5265860;28;20024;-72
2022/09/10 00:20:58;;;;;;;15.88;7.53;;;;;;;14.82;100.00;100953.19;5287141;28;20049;-73
2022/09/10 00:23:29;;;;;;;18.88;6.75;;;;;;;14.84;100.00;100948.41;5287755;28;20057;-73
2022/09/10 00:26:10;;;;;;;18.63;6.57;;;;;;;14.87;100.00;100948.03;5289933;28;20054;-73
2022/09/10 00:28:42;;;;;;;21.48;6.38;;;;;;;14.88;100.00;100943.47;5287180;28;20048;-73
2022/09/10 00:31:13;;;;;;;17.08;6.25;;;;;;;14.87;100.00;100941.81;5283536;28;20023;-73
2022/09/10 00:33:43;;;;;;;18.67;6.30;;;;;;;14.87;100.00;100936.41;5291200;28;20076;-72
2022/09/10 00:36:18;;;;;;;17.58;6.25;;;;;;;14.86;100.00;100948.22;5277667;28;20528;-72
2022/09/10 00:38:50;;;;;;;19.93;6.50;;;;;;;14.86;100.00;100949.06;5291645;28;20031;-73
2022/09/10 00:41:23;;;;;;;22.45;6.50;;;;;;;14.89;100.00;100955.94;5289193;28;20269;-73
2022/09/10 00:43:57;;;;;;;19.05;6.45;;;;;;;14.91;100.00;100949.34;5251106;28;20269;-73
2022/09/10 00:46:47;;;;;;;20.98;6.25;;;;;;;14.92;100.00;100958.28;5281617;28;20069;-73
2022/09/10 00:49:24;;;;;;;23.25;7.57;;;;;;;14.92;100.00;100953.69;5273991;28;20019;-74
2022/09/10 00:51:56;;;;;;;17.60;6.85;;;;;;;14.94;100.00;100953.50;5278116;28;20062;-74
2022/09/10 00:54:30;;;;;;;24.33;7.15;;;;;;;14.98;100.00;100961.03;5288792;28;20039;-72
2022/09/10 00:57:05;;;;;;;17.92;7.50;;;;;;;15.00;100.00;100953.56;5277891;28;20043;-72
2022/09/10 00:59:37;;;;;;;19.17;7.03;;;;;;;15.04;100.00;100954.00;5274655;28;20039;-72
2022/09/10 01:02:08;;;;;;;15.82;7.03;;;;;;;15.05;100.00;100952.97;5290704;28;20080;-72
2022/09/10 01:04:39;;;;;;;22.88;6.45;;;;;;;15.05;100.00;100960.25;5282047;28;20481;-72
2022/09/10 01:07:12;;;;;;;24.33;7.03;;;;;;;15.05;100.00;100955.69;5283347;28;20059;-71
2022/09/10 01:09:43;;;;;;;15.18;6.50;;;;;;;15.09;100.00;100961.53;5289640;28;20477;-71
2022/09/10 01:12:51;;;;;;;16.40;7.32;;;;;;;15.13;100.00;100966.38;5289528;28;20032;-72
2022/09/10 01:15:59;;;;;;;22.55;7.07;;;;;;;15.21;100.00;100957.28;5287287;28;20043;-73
2022/09/10 01:18:43;;;;;;;24.63;7.50;;;;;;;15.25;100.00;100958.56;5289308;28;20027;-73
2022/09/10 01:21:20;;;;;;;21.80;6.67;;;;;;;15.31;100.00;100957.78;5279919;28;20027;-73
2022/09/10 01:24:21;;;;;;;15.18;5.70;;;;;;;15.34;100.00;100961.97;5273336;28;20058;-73
2022/09/10 01:27:11;;;;;;;16.48;6.03;;;;;;;15.33;100.00;100958.44;5285713;28;20063;-73
2022/09/10 01:29:51;;;;;;;23.15;7.18;;;;;;;15.33;100.00;100954.91;5288837;28;20098;-73
2022/09/10 01:32:31;;;;;;;23.88;7.05;;;;;;;15.32;100.00;100970.28;5268384;28;20024;-72
2022/09/10 01:35:13;;;;;;;16.33;6.18;;;;;;;15.31;100.00;100959.66;5282056;28;20016;-73
2022/09/10 01:37:52;;;;;;;19.42;6.55;;;;;;;15.32;100.00;100955.94;5268855;28;20432;-72
2022/09/10 01:40:28;;;;;;;19.75;7.20;;;;;;;15.29;100.00;100963.41;5266579;28;20032;-73
2022/09/10 01:43:01;;;;;;;16.67;7.22;;;;;;;15.27;100.00;100960.06;5268224;28;20028;-72
2022/09/10 01:45:44;;;;;;;15.80;6.40;;;;;;;15.28;100.00;100960.91;5277197;28;20059;-73
2022/09/10 01:48:41;;;;;;;16.42;6.80;;;;;;;15.31;100.00;100970.47;5264241;28;20513;-73
2022/09/10 01:51:28;;;;;;;17.83;6.32;;;;;;;15.32;100.00;100966.75;5274629;28;20098;-73
2022/09/10 01:54:46;;;;;;;20.67;7.28;;;;;;;15.31;100.00;100965.91;5276061;28;20424;-72
2022/09/10 01:57:30;;;;;;;23.25;6.80;;;;;;;15.33;100.00;100963.03;5276158;28;20039;-72
2022/09/10 02:00:16;;;;;;;16.77;6.22;;;;;;;15.34;100.00;100960.13;5277352;28;20020;-73
2022/09/10 02:02:51;;;;;;;;;;;;;;;15.34;100.00;100959.28;5275113;28;20019;-72
2022/09/10 02:05:22;;;;;;;21.30;6.45;;;;;;;15.29;100.00;100957.16;5287159;28;19937;-73
2022/09/10 02:08:00;;;;;;;22.30;7.10;;;;;;;15.28;100.00;100953.63;5268611;28;20059;-73
2022/09/10 02:10:31;;;;;;;26.80;7.90;;;;;;;15.28;100.00;100956.31;5268118;28;20032;-73
2022/09/10 02:13:01;;;;;;;17.77;7.22;;;;;;;15.30;100.00;100953.41;5269858;28;20066;-72
2022/09/10 02:15:32;;;;;;;22.13;7.55;;;;;;;15.31;100.00;100954.25;5287823;28;20023;-71
2022/09/10 02:18:04;;;;;;;16.70;6.85;;;;;;;15.34;100.00;100951.16;5288206;28;20027;-72
2022/09/10 02:20:37;;;;;;;13.93;6.88;;;;;;;15.35;100.00;100955.53;5288329;28;20027;-73
2022/09/10 02:23:11;;;;;;;15.23;6.25;;;;;;;15.37;100.00;100954.34;5275183;28;20131;-72
2022/09/10 02:25:41;;;;;;;13.30;6.57;;;;;;;15.37;100.00;100957.03;5266632;28;20119;-72
2022/09/10 02:28:12;;;;;;;26.08;8.05;;;;;;;15.36;100.00;100951.81;5274626;28;20024;-73
2022/09/10 02:30:43;;;;;;;14.52;6.60;;;;;;;15.38;100.00;100950.59;5275623;28;20031;-74
2022/09/10 02:33:15;;;;;;;21.80;8.40;;;;;;;15.39;100.00;100957.66;5285852;28;20062;-73
2022/09/10 02:35:46;;;;;;;20.48;8.07;;;;;;;15.39;100.00;100956.81;5271946;28;20114;-72
2022/09/10 02:38:17;;;;;;;24.73;8.13;;;;;;;15.39;100.00;100951.41;5252796;28;20031;-72
2022/09/10 02:40:48;;;;;;;14.43;7.05;;;;;;;15.41;100.00;100957.47;5276142;28;20499;-72
2022/09/10 02:43:19;;;;;;;18.95;7.82;;;;;;;15.40;100.00;100962.03;5285684;28;20091;-71
2022/09/10 02:45:50;;;;;;;21.75;8.85;;;;;;;15.43;100.00;100955.41;5287213;28;20110;-71
2022/09/10 02:48:20;;;;;;;20.20;8.40;;;;;;;15.43;100.00;100961.66;5280257;28;20392;-72
2022/09/10 02:50:52;;;;;;;29.00;8.85;;;;;;;15.43;100.00;100968.94;5274074;28;20031;-72
2022/09/10 02:53:22;;;;;;;18.17;9.32;;;;;;;15.42;100.00;100967.25;5287651;28;20026;-72
2022/09/10 02:55:53;;;;;;;19.25;8.55;;;;;;;15.45;100.00;100972.25;5284275;28;20512;-73
2022/09/10 02:58:23;;;;;;;27.25;8.98;;;;;;;15.45;100.00;100969.56;5276148;28;20489;-73
2022/09/10 03:01:07;;;;;;;19.55;9.35;;;;;;;15.44;100.00;100973.31;5283611;28;20029;-72
2022/09/10 03:03:38;;;;;;;20.08;8.73;;;;;;;15.45;100.00;100973.09;5280021;28;20053;-73
2022/09/10 03:06:09;;;;;;;21.52;9.23;;;;;;;15.46;100.00;100973.94;5286899;28;20027;-73
2022/09/10 03:08:39;;;;;;;33.17;11.00;;;;;;;15.47;100.00;100978.31;5273950;28;20117;-73
2022/09/10 03:11:11;;;;;;;26.23;11.00;;;;;;;15.45;100.00;100973.09;5287622;28;20031;-72
2022/09/10 03:13:44;;;;;;;21.45;10.38;;;;;;;15.45;100.00;100975.81;5286492;28;20385;-72
2022/09/10 03:16:17;;;;;;;24.17;10.20;;;;;;;15.46;100.00;100969.38;5286821;28;20529;-73
2022/09/10 03:18:47;;;;;;;19.50;9.23;;;;;;;15.46;100.00;100963.97;5283135;28;20028;-72
2022/09/10 03:21:21;;;;;;;22.92;9.98;;;;;;;15.47;100.00;100960.25;5277144;28;20019;-73
2022/09/10 03:23:54;;;;;;;21.80;10.07;;;;;;;15.48;100.00;100959.19;5273676;28;20106;-73
2022/09/10 03:26:24;;;;;;;31.25;10.40;;;;;;;15.47;100.00;100954.81;5273953;28;20413;-73
2022/09/10 03:28:55;;;;;;;21.23;9.93;;;;;;;15.48;100.00;100955.66;5285524;28;20020;-73
2022/09/10 03:31:26;;;;;;;23.95;10.30;;;;;;;15.50;100.00;100964.41;5286448;28;20039;-72
2022/09/10 03:33:58;;;;;;;24.30;10.23;;;;;;;15.49;100.00;100968.16;5274278;28;20477;-72
2022/09/10 03:36:30;;;;;;;26.30;10.15;;;;;;;15.48;100.00;100961.91;5272625;28;20036;-72
2022/09/10 03:39:00;;;;;;;22.17;9.73;;;;;;;15.49;100.00;100968.16;5286991;28;20027;-72
2022/09/10 03:41:31;;;;;;;23.60;10.73;;;;;;;15.45;100.00;100962.28;5286330;28;20024;-72
2022/09/10 03:44:02;;;;;;;27.58;11.10;;;;;;;15.45;100.00;100964.16;5286654;28;20028;-73
2022/09/10 03:46:32;;;;;;;29.98;12.38;;;;;;;15.42;100.00;100964.56;5286223;28;20024;-72
2022/09/10 03:49:04;;;;;;;28.05;11.60;;;;;;;15.43;100.00;100958.13;5286670;28;20441;-73
2022/09/10 03:51:34;;;;;;;28.83;11.50;;;;;;;15.43;100.00;100958.94;5286174;28;20040;-73
2022/09/10 03:54:05;;;;;;;27.25;12.88;;;;;;;15.42;100.00;100951.88;5285873;28;20074;-73
2022/09/10 03:56:35;;;;;;;22.42;12.88;;;;;;;15.41;100.00;100952.06;5261142;28;20069;-73
2022/09/10 03:59:06;;;;;;;28.30;13.13;;;;;;;15.40;100.00;100953.09;5266631;28;20427;-72
2022/09/10 04:01:36;;;;;;;45.30;14.93;;;;;;;15.43;100.00;100948.13;5277758;28;20107;-73
2022/09/10 04:04:07;;;;;;;24.45;14.23;;;;;;;15.45;100.00;100956.88;5280222;28;20061;-73
2022/09/10 04:06:39;;;;;;;35.58;15.68;;;;;;;15.43;100.00;100953.53;5276658;28;20035;-72
2022/09/10 04:09:09;;;;;;;36.83;15.05;;;;;;;15.43;100.00;100950.00;5268736;28;20024;-73
2022/09/10 04:11:40;;;;;;;31.20;15.98;;;;;;;15.44;100.00;100951.66;5286390;28;20503;-73
2022/09/10 04:14:11;;;;;;;31.73;16.42;;;;;;;15.42;100.00;100956.44;5285851;28;20016;-73
2022/09/10 04:16:41;;;;;;;37.20;17.48;;;;;;;15.39;100.00;100963.06;5272729;28;20020;-72
2022/09/10 04:19:12;;;;;;;35.80;17.25;;;;;;;15.43;100.00;100952.72;5267816;28;20115;-73
2022/09/10 04:21:42;;;;;;;34.58;18.00;;;;;;;15.41;100.00;100954.75;5271321;28;20052;-73
2022/09/10 04:24:13;;;;;;;33.97;18.10;;;;;;;15.43;100.00;100967.06;5264720;28;20128;-73
2022/09/10 04:26:43;;;;;;;37.55;18.40;;;;;;;15.43;100.00;100948.13;5267059;28;20024;-73
2022/09/10 04:29:14;;;;;;;35.30;18.63;;;;;;;15.46;100.00;100957.72;5285818;28;20028;-73
2022/09/10 04:31:45;;;;;;;36.75;18.85;;;;;;;15.43;100.00;100968.94;5285828;28;20064;-72
2022/09/10 04:34:16;;;;;;;40.42;19.17;;;;;;;15.45;100.00;100966.84;5285587;28;20537;-72
2022/09/10 04:36:46;;;;;;;34.40;19.50;;;;;;;15.45;100.00;100967.69;5272360;28;20032;-73
2022/09/10 04:39:17;;;;;;;45.05;20.05;;;;;;;15.45;100.00;100959.56;5274444;28;20141;-74
2022/09/10 04:41:47;;;;;;;37.60;20.25;;;;;;;15.45;100.00;100958.75;5270442;28;20020;-73
2022/09/10 04:44:18;;;;;;;41.03;19.83;;;;;;;15.43;100.00;100964.34;5267671;28;20492;-73
2022/09/10 04:46:49;;;;;;;40.78;21.05;;;;;;;15.43;100.00;100969.75;5272167;28;20028;-73
2022/09/10 04:49:19;;;;;;;36.90;20.85;;;;;;;15.46;100.00;100972.09;5285842;28;20060;-73
2022/09/10 04:51:50;;;;;;;38.65;21.60;;;;;;;15.45;100.00;100975.81;5285620;28;20020;-73
2022/09/10 04:54:20;;;;;;;40.35;20.05;;;;;;;15.48;100.00;100971.88;5284840;28;20032;-72
2022/09/10 04:56:51;;;;;;;47.78;21.85;;;;;;;15.48;100.00;100983.53;5286100;28;20080;-71
2022/09/10 04:59:21;;;;;;;51.35;22.77;;;;;;;15.49;100.00;100974.38;5285981;28;20164;-72
2022/09/10 05:01:52;;;;;;;43.70;22.13;;;;;;;15.57;100.00;100986.09;5275161;28;20020;-72
2022/09/10 05:04:24;;;;;;;40.08;20.88;;;;;;;15.53;100.00;100982.94;5281965;28;20019;-71
2022/09/10 05:06:55;;;;;;;41.42;22.55;;;;;;;15.49;100.00;100970.84;5285629;28;20469;-72
2022/09/10 05:09:29;;;;;;;49.25;24.45;;;;;;;15.51;100.00;100980.44;5285662;28;20030;-72
2022/09/10 05:12:00;;;;;;;37.63;22.35;;;;;;;15.52;100.00;100990.22;5285637;28;20034;-73
2022/09/10 05:14:32;;;;;;;50.03;23.42;;;;;;;15.54;100.00;100987.31;5286264;28;20384;-72
2022/09/10 05:17:02;;;;;;;47.15;24.42;;;;;;;15.53;100.00;100985.66;5289633;28;20040;-73
2022/09/10 05:19:33;;;;;;;44.80;25.65;;;;;;;15.51;100.00;100990.41;5289266;28;20028;-72
2022/09/10 05:22:03;;;;;;;44.40;24.67;;;;;;;15.53;100.00;100996.47;5275926;28;20016;-73
2022/09/10 05:24:34;;;;;;;59.22;26.38;;;;;;;15.52;100.00;100986.69;5288836;28;20072;-73
2022/09/10 05:27:04;;;;;;;50.85;24.73;;;;;;;15.49;100.00;100987.91;5284124;28;20114;-72
2022/09/10 05:29:35;;;;;;;53.08;26.80;;;;;;;15.44;100.00;100984.13;5275602;28;20028;-73
2022/09/10 05:32:08;;;;;;;54.97;26.58;;;;;;;15.41;100.00;100985.34;5281287;28;20020;-72
2022/09/10 05:34:38;;;;;;;54.53;27.23;;;;;;;15.40;100.00;100989.06;5274313;28;20015;-73
2022/09/10 05:37:10;;;;;;;57.70;28.42;;;;;;;15.38;100.00;100987.59;5281274;28;20389;-74
2022/09/10 05:39:41;;;;;;;54.17;26.52;;;;;;;15.39;100.00;100990.09;5267808;28;20024;-72
2022/09/10 05:42:11;;;;;;;53.78;28.20;;;;;;;15.39;100.00;100995.50;5277087;28;20030;-72
2022/09/10 05:44:42;;;;;;;60.97;27.98;;;;;;;15.40;100.00;100989.06;5266951;28;20019;-72
2022/09/10 05:47:12;;;;;;;66.38;29.40;;;;;;;15.38;100.00;100988.44;5272055;28;20030;-71
2022/09/10 05:49:46;;;;;;;51.05;28.00;;;;;;;15.40;100.00;100994.47;5274928;28;20147;-72
2022/09/10 05:52:17;;;;;;;54.00;28.10;;;;;;;15.39;100.00;100997.38;5288914;28;20039;-72
2022/09/10 05:54:47;;;;;;;54.22;28.15;;;;;;;15.39;100.00;101000.91;5287644;28;20404;-72
2022/09/10 05:57:18;;;;;;;59.08;27.73;;;;;;;15.42;100.00;101005.13;5253529;28;20421;-72
2022/09/10 05:59:49;;;;;;;57.55;28.30;;;;;;;15.42;100.00;101002.41;5280184;28;20027;-72
2022/09/10 06:02:19;;;;;;;59.30;30.05;;;;;;;15.44;100.00;101008.44;5286035;28;20058;-72
2022/09/10 06:04:50;;;;;;;65.43;30.08;;;;;;;15.42;100.00;101013.22;5275761;28;20117;-73
2022/09/10 06:07:21;;;;;;;66.63;30.65;;;;;;;15.42;100.00;101013.22;5249192;28;20024;-72
2022/09/10 06:09:51;;;;;;;56.72;29.23;;;;;;;15.39;100.00;101014.44;5284637;28;20023;-72
2022/09/10 06:12:23;;;;;;;64.43;29.70;;;;;;;15.40;100.00;101020.66;5265934;28;20024;-72
2022/09/10 06:14:53;;;;;;;65.85;30.75;;;;;;;15.37;100.00;101016.50;5284986;28;20477;-72
2022/09/10 06:17:24;;;;;;;58.67;29.88;;;;;;;15.34;100.00;101008.78;5272111;28;20024;-72
2022/09/10 06:19:54;;;;;;;68.57;31.50;;;;;;;15.33;100.00;101017.09;5271584;28;20033;-72
2022/09/10 06:22:25;;;;;;;61.53;29.05;;;;;;;15.34;100.00;101021.44;5285109;28;20060;-72
2022/09/10 06:24:55;;;;;;;67.47;29.38;;;;;;;15.28;100.00;101013.09;5284456;28;20034;-72
2022/09/10 06:27:26;;;;;;;74.53;31.38;;;;;;;15.30;100.00;101034.50;5277571;28;20023;-72
2022/09/10 06:29:56;;;;;;;69.57;32.08;;;;;;;15.28;100.00;101026.59;5282279;28;20031;-72
2022/09/10 06:32:26;;;;;;;67.72;32.25;;;;;;;15.28;100.00;101028.47;5273347;28;20027;-72
2022/09/10 06:34:57;;;;;;;60.97;31.42;;;;;;;15.28;100.00;101031.16;5282427;28;20027;-72
2022/09/10 06:37:27;;;;;;;64.22;32.10;;;;;;;15.27;100.00;101038.44;5283577;28;20521;-72
2022/09/10 06:39:58;;;;;;;64.88;32.15;;;;;;;15.26;100.00;101036.78;5281993;28;20579;-72
2022/09/10 06:42:30;;;;;;;69.03;32.25;;;;;;;15.23;100.00;101034.44;5264330;28;20092;-72
2022/09/10 06:45:01;;;;;;;61.53;30.67;;;;;;;15.22;100.00;101040.88;5281957;28;20412;-72
2022/09/10 06:47:32;;;;;;;66.68;30.73;;;;;;;15.20;100.00;101042.94;5282748;28;20050;-72
2022/09/10 06:50:03;;;;;;;76.78;33.60;;;;;;;15.20;100.00;101048.34;5281943;28;20031;-72
2022/09/10 06:52:34;;;;;;;65.32;31.83;;;;;;;15.24;100.00;101049.63;5282807;28;20399;-72
2022/09/10 06:55:05;;;;;;;74.35;33.13;;;;;;;15.21;100.00;101049.16;5282028;28;20031;-73
2022/09/10 06:57:35;;;;;;;64.30;31.15;;;;;;;15.21;100.00;101054.56;5282238;28;20027;-72
2022/09/10 07:00:06;;;;;;;71.85;30.45;;;;;;;15.18;100.00;101052.28;5281932;28;20024;-73
2022/09/10 07:02:37;;;;;;;60.63;29.38;;;;;;;15.17;100.00;101056.00;5263024;28;20021;-72
2022/09/10 07:05:08;;;;;;;63.85;28.20;;;;;;;15.20;100.00;101052.91;5263370;28;20020;-72
2022/09/10 07:07:38;;;;;;;59.13;29.23;;;;;;;15.17;100.00;101046.03;5263875;28;20035;-73
2022/09/10 07:10:08;;;;;;;65.68;29.45;;;;;;;15.16;100.00;101047.06;5281235;28;20108;-72
2022/09/10 07:12:39;;;;;;;64.18;29.83;;;;;;;15.15;100.00;101058.88;5283092;28;20031;-73
2022/09/10 07:15:10;;;;;;;54.83;27.58;;;;;;;15.14;100.00;101057.22;5280906;28;20035;-72
2022/09/10 07:17:41;;;;;;;57.95;27.58;;;;;;;15.14;100.00;101061.78;5282892;28;20094;-73
2022/09/10 07:20:11;;;;;;;65.40;29.08;;;;;;;15.13;100.00;101065.53;5282908;28;20147;-73
2022/09/10 07:22:42;;;;;;;60.47;29.88;;;;;;;15.13;100.00;101065.53;5283378;28;20121;-73
2022/09/10 07:25:13;;;;;;;61.58;29.35;;;;;;;15.11;100.00;101068.41;5282758;28;20028;-72
2022/09/10 07:27:44;;;;;;;62.05;28.48;;;;;;;15.13;100.00;101069.06;5282487;28;20120;-72
2022/09/10 07:30:16;;;;;;;63.63;29.58;;;;;;;15.13;100.00;101071.75;5282017;28;20034;-72
2022/09/10 07:32:48;;;;;;;63.40;29.52;;;;;;;15.12;100.00;101075.50;5282328;28;20472;-72
2022/09/10 07:35:19;;;;;;;79.22;29.73;;;;;;;15.13;100.00;101077.16;5281846;28;20015;-72
2022/09/10 07:37:49;;;;;;;61.45;29.10;;;;;;;15.13;100.00;101082.56;5280998;28;20458;-72
2022/09/10 07:40:22;;;;;;;82.68;30.25;;;;;;;15.15;100.00;101095.88;5281337;28;20501;-72
2022/09/10 07:42:54;;;;;;;67.03;31.13;;;;;;;15.15;100.00;101098.59;5281173;28;20372;-72
2022/09/10 07:45:26;;;;;;;61.53;27.85;;;;;;;15.12;100.00;101097.09;5281155;28;20568;-73
2022/09/10 07:47:57;;;;;;;67.80;30.05;;;;;;;15.12;100.00;101098.97;5282334;28;20327;-72
2022/09/10 07:50:27;;;;;;;63.97;29.50;;;;;;;15.17;100.00;101097.38;5281184;28;20469;-73
2022/09/10 07:52:58;;;;;;;61.72;29.05;;;;;;;15.19;100.00;101098.00;5282081;28;20035;-72
2022/09/10 07:55:30;;;;;;;60.65;28.30;;;;;;;15.17;100.00;101097.38;5280797;28;20042;-72
2022/09/10 07:58:00;;;;;;;60.35;27.40;;;;;;;15.17;100.00;101104.66;5280638;28;20077;-72
2022/09/10 08:00:31;;;;;;;57.03;27.90;;;;;;;15.15;100.00;101104.81;5281318;28;20011;-72
2022/09/10 08:03:02;;;;;;;68.32;28.05;;;;;;;15.16;100.00;101108.34;5282412;28;20065;-73
2022/09/10 08:05:32;;;;;;;64.13;27.95;;;;;;;15.18;100.00;101117.97;5280974;28;20169;-73
2022/09/10 08:08:02;;;;;;;62.50;28.95;;;;;;;15.16;100.00;101109.22;5281601;28;20027;-73
2022/09/10 08:10:33;;;;;;;64.25;29.38;;;;;;;15.19;100.00;101108.00;5280942;28;20058;-73
2022/09/10 08:13:03;;;;;;;56.38;27.85;;;;;;;15.19;100.00;101118.81;5281786;28;20163;-73
2022/09/10 08:15:34;;;;;;;65.15;28.88;;;;;;;15.20;100.00;101121.31;5261929;28;20073;-73
2022/09/10 08:18:05;;;;;;;59.30;28.48;;;;;;;15.20;100.00;101121.31;5281304;28;20028;-73
2022/09/10 08:20:35;;;;;;;68.15;27.80;;;;;;;15.19;100.00;101119.63;5279934;28;20076;-72
2022/09/10 08:23:06;;;;;;;56.78;28.20;;;;;;;15.18;100.00;101119.84;5263481;28;20035;-72
2022/09/10 08:25:37;;;;;;;68.35;28.70;;;;;;;15.18;100.00;101123.38;5280645;28;20089;-72
2022/09/10 08:28:07;;;;;;;62.17;27.80;;;;;;;15.21;100.00;101127.53;5282021;28;20426;-72
2022/09/10 08:30:38;;;;;;;60.10;27.65;;;;;;;15.21;100.00;101138.34;5280769;28;20681;-72
2022/09/10 08:33:08;;;;;;;66.47;29.25;;;;;;;15.24;100.00;101140.69;5281258;28;20055;-72
2022/09/10 08:35:39;;;;;;;67.82;27.90;;;;;;;15.27;100.00;101149.25;5280634;28;20027;-72
2022/09/10 08:38:11;;;;;;;66.68;28.52;;;;;;;15.29;100.00;101154.47;5279154;28;20037;-72
2022/09/10 08:40:42;;;;;;;63.25;29.08;;;;;;;15.32;100.00;101154.09;5280761;28;20376;-73
2022/09/10 08:43:13;;;;;;;70.20;28.70;;;;;;;15.33;100.00;101155.78;5281663;28;20042;-72
2022/09/10 08:45:49;;;;;;;65.20;27.20;;;;;;;15.39;100.00;101157.72;5280964;28;20008;-72
2022/09/10 08:48:24;;;;;;;59.80;29.38;;;;;;;15.49;100.00;101160.94;5280490;28;20020;-73
2022/09/10 08:51:01;;;;;;;54.07;27.23;;;;;;;15.61;100.00;101166.69;5267039;28;20019;-72
2022/09/10 08:53:52;;;;;;;66.30;27.35;;;;;;;15.70;100.00;101176.38;5285688;28;20028;-72
2022/09/10 08:56:23;;;;;;;50.13;25.80;;;;;;;15.80;100.00;101162.53;5266274;28;20023;-72
2022/09/10 08:59:16;;;;;;;55.15;26.80;;;;;;;15.84;100.00;101157.59;5283861;28;20023;-72
2022/09/10 09:01:53;;;;;;;56.88;25.98;;;;;;;15.93;100.00;101173.50;5284601;28;20118;-72
2022/09/10 09:04:44;;;;;;;46.63;25.35;;;;;;;15.94;100.00;101167.06;5283032;28;20023;-72
2022/09/10 09:07:18;;;;;;;44.85;25.10;;;;;;;15.98;100.00;101162.94;5283576;28;20316;-73
2022/09/10 09:09:50;;;;;;;52.65;24.65;;;;;;;16.01;100.00;101165.28;5283600;28;20034;-72
2022/09/10 09:12:39;;;;;;;42.45;24.63;;;;;;;15.99;100.00;101171.91;5285010;28;20115;-72
2022/09/10 09:15:10;;;;;;;43.80;23.17;;;;;;;15.98;100.00;101170.22;5283138;28;20032;-72
2022/09/10 09:18:00;;;;;;;45.38;24.45;;;;;;;16.02;100.00;101169.66;5284418;28;20068;-72
2022/09/10 09:20:53;;;;;;;46.90;24.45;;;;;;;16.07;100.00;101171.78;5283341;28;20020;-72
2022/09/10 09:23:50;;;;;;;49.05;26.13;;;;;;;16.10;100.00;101182.19;5283557;28;20027;-72
2022/09/10 09:26:28;;;;;;;48.53;25.40;;;;;;;16.13;100.00;101181.81;5283210;28;20107;-72
2022/09/10 09:29:05;;;;;;;46.00;25.00;;;;;;;16.20;100.00;101180.00;5283212;28;20137;-72
2022/09/10 09:31:41;;;;;;;52.17;28.73;;;;;;;16.24;100.00;101178.56;5282498;28;20027;-72
2022/09/10 09:34:44;;;;;;;52.13;27.88;;;;;;;16.29;100.00;101175.28;5284089;28;20374;-72
2022/09/10 09:37:20;;;;;;;53.20;26.40;;;;;;;16.37;100.00;101180.56;5283431;28;20540;-72
2022/09/10 09:40:12;;;;;;;50.72;27.00;;;;;;;16.50;100.00;101182.53;5281773;28;20507;-72
2022/09/10 09:42:54;;;;;;;45.58;26.25;;;;;;;16.53;100.00;101193.81;5283894;28;20019;-72
2022/09/10 09:45:33;;;;;;;49.50;26.13;;;;;;;16.56;100.00;101196.09;5282682;28;20020;-72
2022/09/10 09:48:06;;;;;;;42.67;25.33;;;;;;;16.56;100.00;101200.69;5246793;28;20392;-72
2022/09/10 09:50:40;;;;;;;43.00;24.00;;;;;;;16.56;100.00;101203.38;5282955;28;20332;-72
2022/09/10 09:53:19;;;;;;;42.42;24.92;;;;;;;16.61;100.00;101197.38;5283575;28;20023;-72
2022/09/10 09:56:12;;;;;;;47.47;25.30;;;;;;;16.62;100.00;101196.34;5263895;28;20037;-72
2022/09/10 09:58:48;;;;;;;48.50;26.58;;;;;;;16.63;100.00;101192.63;5282143;28;20423;-72
2022/09/10 10:01:22;;;;;;;50.10;26.77;;;;;;;16.66;100.00;101195.75;5282043;28;20564;-72
2022/09/10 10:03:57;;;;;;;50.50;24.77;;;;;;;16.68;100.00;101192.88;5282089;28;20111;-73
2022/09/10 10:06:47;;;;;;;43.58;23.50;;;;;;;16.65;100.00;101201.38;5282941;28;20249;-72
2022/09/10 10:09:22;;;;;;;49.75;24.10;;;;;;;16.68;100.00;101195.59;5282140;28;20081;-72
2022/09/10 10:11:54;;;;;;;39.28;22.98;;;;;;;16.70;100.00;101205.16;5283204;28;20089;-72
2022/09/10 10:14:34;;;;;;;47.72;23.13;;;;;;;16.70;100.00;101213.28;5282376;28;20484;-72
2022/09/10 10:17:27;;;;;;;36.80;21.05;;;;;;;16.68;100.00;101201.84;5284032;28;20035;-72
2022/09/10 10:20:00;;;;;;;42.47;22.48;;;;;;;16.74;100.00;101203.78;5282816;28;20381;-72
2022/09/10 10:22:31;;;;;;;38.45;20.80;;;;;;;16.70;100.00;101205.16;5283541;28;20035;-72
2022/09/10 10:25:04;;;;;;;35.75;21.30;;;;;;;16.70;100.00;101198.91;5281497;28;20481;-72
2022/09/10 10:27:40;;;;;;;39.65;21.98;;;;;;;16.72;100.00;101208.56;5283166;28;20107;-72
2022/09/10 10:30:10;;;;;;;36.08;19.77;;;;;;;16.83;100.00;101208.00;5282452;28;20319;-72
2022/09/10 10:32:46;;;;;;;50.30;22.33;;;;;;;16.93;100.00;101218.50;5283614;28;20031;-72
2022/09/10 10:35:22;;;;;;;44.78;22.30;;;;;;;17.00;100.00;101219.34;5282433;28;20158;-73
2022/09/10 10:38:24;;;;;;;39.38;21.02;;;;;;;17.07;100.00;101214.84;5283116;28;20110;-72
2022/09/10 10:41:15;;;;;;;36.72;20.67;;;;;;;17.10;100.00;101213.56;5282474;28;20027;-72
2022/09/10 10:44:01;;;;;;;37.33;22.05;;;;;;;17.16;100.00;101209.22;5283043;28;20403;-73
2022/09/10 10:46:52;;;;;;;41.20;21.42;;;;;;;17.20;100.00;101215.94;5282230;28;20024;-72
2022/09/10 10:49:31;;;;;;;35.83;20.45;;;;;;;17.22;100.00;101217.41;5281092;28;20095;-73
2022/09/10 10:52:20;;;;;;;39.92;20.35;;;;;;;17.33;100.00;101216.84;5282944;28;20035;-72
2022/09/10 10:55:10;;;;;;;35.78;19.90;;;;;;;17.35;100.00;101219.34;5282082;28;20031;-72
2022/09/10 10:58:19;;;;;;;35.45;18.80;;;;;;;17.38;100.00;101215.41;5282201;28;20028;-72
2022/09/10 11:01:00;;;;;;;29.73;18.15;;;;;;;17.39;100.00;101220.59;5282552;28;20019;-72
2022/09/10 11:03:54;;;;;;;28.88;18.00;;;;;;;17.38;100.00;101228.97;5281996;28;20015;-72
2022/09/10 11:06:30;;;;;;;28.85;15.75;;;;;;;17.34;100.00;101231.22;5281911;28;20483;-73
2022/09/10 11:09:10;;;;;;;34.70;16.63;;;;;;;17.30;100.00;101233.50;5280749;28;20057;-73
2022/09/10 11:11:56;;;;;;;33.85;17.17;;;;;;;17.23;100.00;101229.94;5281526;28;20481;-72
2022/09/10 11:14:49;;;;;;;28.85;16.10;;;;;;;17.21;100.00;101231.16;5263171;28;20546;-72
2022/09/10 11:17:41;;;;;;;28.75;15.77;;;;;;;17.20;100.00;101226.78;5282374;28;20023;-72
2022/09/10 11:20:18;;;;;;;33.03;15.98;;;;;;;17.21;100.00;101229.28;5281402;28;20179;-72
2022/09/10 11:23:10;;;;;;;30.13;15.95;;;;;;;17.22;100.00;101225.56;5282419;28;20259;-72
2022/09/10 11:26:02;;;;;;;34.17;16.40;;;;;;;17.27;100.00;101228.50;5281974;28;20046;-73
2022/09/10 11:28:39;;;;;;;24.85;15.60;;;;;;;17.28;100.00;101226.63;5280700;28;20023;-72
2022/09/10 11:31:16;;;;;;;33.95;17.25;;;;;;;17.34;100.00;101220.38;5282281;28;20019;-72
2022/09/10 11:33:56;;;;;;;25.98;14.65;;;;;;;17.44;100.00;101222.72;5281659;28;20027;-72
2022/09/10 11:36:46;;;;;;;28.73;16.90;;;;;;;17.44;100.00;101223.56;5280848;28;20036;-73
2022/09/10 11:39:27;;;;;;;31.45;16.70;;;;;;;17.45;100.00;101225.22;5262436;28;20082;-73